sensor_id;sensor_type;location;lat;lon;timestamp;temperature;humidity
11666;DHT22;5889;51.350;6.708;2023-08-07T00:02:12;13.30;99.90
11666;DHT22;5889;51.350;6.708;2023-08-07T00:04:47;13.20;99.90
11666;DHT22;5889;51.350;6.708;2023-08-07T00:07:25;13.20;99.90
11666;DHT22;5889;51.350;6.708;2023-08-07T00:09:58;13.20;99.90
11666;DHT22;5889;51.350;6.708;2023-08-07T00:12:37;13.30;99.90
11666;DHT22;5889;51.350;6.708;2023-08-07T00:15:19;13.20;99.90
11666;DHT22;5889;51.350;6.708;2023-08-07T00:17:53;13.20;99.90
11666;DHT22;5889;51.350;6.708;2023-08-07T00:20:29;13.20;99.90
11666;DHT22;5889;51.350;6.708;2023-08-07T00:23:13;13.20;99.90
11666;DHT22;5889;51.350;6.708;2023-08-07T00:26:05;13.30;99.90
11666;DHT22;5889;51.350;6.708;2023-08-07T00:28:59;13.20;99.90
11666;DHT22;5889;51.350;6.708;2023-08-07T00:31:59;13.30;99.90
11666;DHT22;5889;51.350;6.708;2023-08-07T00:34:39;13.30;99.90
11666;DHT22;5889;51.350;6.708;2023-08-07T00:37:19;13.20;99.90
11666;DHT22;5889;51.350;6.708;2023-08-07T00:40:01;13.30;99.90
11666;DHT22;5889;51.350;6.708;2023-08-07T00:43:08;13.20;99.90
11666;DHT22;5889;51.350;6.708;2023-08-07T00:45:58;13.30;99.90
11666;DHT22;5889;51.350;6.708;2023-08-07T01:52:34;13.20;99.90
11666;DHT22;5889;51.350;6.708;2023-08-07T01:55:22;13.20;99.90
11666;DHT22;5889;51.350;6.708;2023-08-07T01:57:58;13.10;99.90
11666;DHT22;5889;51.350;6.708;2023-08-07T02:00:35;13.20;99.90
11666;DHT22;5889;51.350;6.708;2023-08-07T02:03:17;13.20;99.90
11666;DHT22;5889;51.350;6.708;2023-08-07T02:05:55;13.20;99.90
11666;DHT22;5889;51.350;6.708;2023-08-07T02:08:34;13.20;99.90
11666;DHT22;5889;51.350;6.708;2023-08-07T02:11:17;13.10;99.90
11666;DHT22;5889;51.350;6.708;2023-08-07T02:14:12;13.10;99.90
11666;DHT22;5889;51.350;6.708;2023-08-07T02:20:19;13.00;99.90
11666;DHT22;5889;51.350;6.708;2023-08-07T02:23:10;13.00;99.90
11666;DHT22;5889;51.350;6.708;2023-08-07T02:26:10;12.90;99.90
11666;DHT22;5889;51.350;6.708;2023-08-07T02:29:01;13.00;99.90
11666;DHT22;5889;51.350;6.708;2023-08-07T02:31:54;13.00;99.90
11666;DHT22;5889;51.350;6.708;2023-08-07T02:34:47;13.00;99.90
11666;DHT22;5889;51.350;6.708;2023-08-07T02:38:00;13.00;99.90
11666;DHT22;5889;51.350;6.708;2023-08-07T02:44:33;12.90;99.90
11666;DHT22;5889;51.350;6.708;2023-08-07T02:47:17;13.00;99.90
11666;DHT22;5889;51.350;6.708;2023-08-07T02:50:35;12.90;99.90
11666;DHT22;5889;51.350;6.708;2023-08-07T06:43:53;13.20;99.90
11666;DHT22;5889;51.350;6.708;2023-08-07T06:46:20;13.10;99.90
11666;DHT22;5889;51.350;6.708;2023-08-07T06:48:59;13.20;99.90
11666;DHT22;5889;51.350;6.708;2023-08-07T06:51:36;13.20;99.90
11666;DHT22;5889;51.350;6.708;2023-08-07T06:54:42;13.10;99.90
11666;DHT22;5889;51.350;6.708;2023-08-07T06:57:32;13.20;99.90
11666;DHT22;5889;51.350;6.708;2023-08-07T07:03:28;13.20;99.90
11666;DHT22;5889;51.350;6.708;2023-08-07T07:05:55;13.10;99.90
11666;DHT22;5889;51.350;6.708;2023-08-07T07:08:31;13.20;99.90
11666;DHT22;5889;51.350;6.708;2023-08-07T07:18:22;13.20;99.90
11666;DHT22;5889;51.350;6.708;2023-08-07T07:28:39;13.20;99.90
11666;DHT22;5889;51.350;6.708;2023-08-07T07:31:30;13.20;99.90
11666;DHT22;5889;51.350;6.708;2023-08-07T07:36:36;13.30;99.90
11666;DHT22;5889;51.350;6.708;2023-08-07T07:39:23;13.20;99.90
11666;DHT22;5889;51.350;6.708;2023-08-07T07:48:47;13.20;99.90
11666;DHT22;5889;51.350;6.708;2023-08-07T07:51:35;13.20;99.90
11666;DHT22;5889;51.350;6.708;2023-08-07T07:54:21;13.30;99.90
11666;DHT22;5889;51.350;6.708;2023-08-07T07:57:13;13.30;99.90
11666;DHT22;5889;51.350;6.708;2023-08-07T07:59:43;13.40;99.90
11666;DHT22;5889;51.350;6.708;2023-08-07T08:02:11;13.50;99.90
11666;DHT22;5889;51.350;6.708;2023-08-07T08:08:19;13.70;99.90
11666;DHT22;5889;51.350;6.708;2023-08-07T08:10:47;13.70;99.90
11666;DHT22;5889;51.350;6.708;2023-08-07T08:13:17;13.80;99.90
11666;DHT22;5889;51.350;6.708;2023-08-07T08:15:45;13.80;99.90
11666;DHT22;5889;51.350;6.708;2023-08-07T08:18:14;13.70;99.90
11666;DHT22;5889;51.350;6.708;2023-08-07T08:20:47;13.70;99.90
11666;DHT22;5889;51.350;6.708;2023-08-07T08:30:30;13.90;99.90
11666;DHT22;5889;51.350;6.708;2023-08-07T08:33:39;14.00;99.90
11666;DHT22;5889;51.350;6.708;2023-08-07T08:36:29;14.10;99.90
11666;DHT22;5889;51.350;6.708;2023-08-07T08:39:02;14.20;99.90
11666;DHT22;5889;51.350;6.708;2023-08-07T08:42:03;14.30;99.90
11666;DHT22;5889;51.350;6.708;2023-08-07T08:45:00;14.40;99.90
11666;DHT22;5889;51.350;6.708;2023-08-07T08:47:44;14.60;99.90
11666;DHT22;5889;51.350;6.708;2023-08-07T08:50:25;14.80;99.90
11666;DHT22;5889;51.350;6.708;2023-08-07T08:53:32;14.90;99.90
11666;DHT22;5889;51.350;6.708;2023-08-07T08:56:30;15.00;99.90
11666;DHT22;5889;51.350;6.708;2023-08-07T08:59:31;15.20;99.90
11666;DHT22;5889;51.350;6.708;2023-08-07T09:02:21;15.30;99.90
11666;DHT22;5889;51.350;6.708;2023-08-07T09:12:07;15.90;99.90
11666;DHT22;5889;51.350;6.708;2023-08-07T09:15:19;16.00;99.90
11666;DHT22;5889;51.350;6.708;2023-08-07T09:18:24;15.90;99.90
11666;DHT22;5889;51.350;6.708;2023-08-07T09:21:20;15.70;99.90
11666;DHT22;5889;51.350;6.708;2023-08-07T09:24:32;15.70;99.90
11666;DHT22;5889;51.350;6.708;2023-08-07T09:28:05;15.50;99.90
11666;DHT22;5889;51.350;6.708;2023-08-07T09:31:05;15.40;99.90
11666;DHT22;5889;51.350;6.708;2023-08-07T09:34:10;15.30;99.90
11666;DHT22;5889;51.350;6.708;2023-08-07T09:37:05;15.50;99.90
11666;DHT22;5889;51.350;6.708;2023-08-07T09:40:03;15.50;99.90
11666;DHT22;5889;51.350;6.708;2023-08-07T09:59:34;15.30;99.90
11666;DHT22;5889;51.350;6.708;2023-08-07T10:02:02;15.60;99.90
11666;DHT22;5889;51.350;6.708;2023-08-07T10:04:30;16.00;99.90
11666;DHT22;5889;51.350;6.708;2023-08-07T10:06:57;16.40;99.90
11666;DHT22;5889;51.350;6.708;2023-08-07T10:09:28;16.50;99.90
11666;DHT22;5889;51.350;6.708;2023-08-07T10:11:55;16.90;99.90
11666;DHT22;5889;51.350;6.708;2023-08-07T10:14:22;17.10;99.90
11666;DHT22;5889;51.350;6.708;2023-08-07T10:16:51;17.30;99.90
11666;DHT22;5889;51.350;6.708;2023-08-07T10:19:19;17.40;99.90
11666;DHT22;5889;51.350;6.708;2023-08-07T10:21:46;17.50;99.90
11666;DHT22;5889;51.350;6.708;2023-08-07T10:24:14;17.60;99.90
11666;DHT22;5889;51.350;6.708;2023-08-07T10:26:44;17.60;99.90
11666;DHT22;5889;51.350;6.708;2023-08-07T10:29:14;17.60;99.90
11666;DHT22;5889;51.350;6.708;2023-08-07T10:31:42;17.80;99.90
11666;DHT22;5889;51.350;6.708;2023-08-07T10:34:11;18.20;99.90
11666;DHT22;5889;51.350;6.708;2023-08-07T10:36:40;18.40;99.90
11666;DHT22;5889;51.350;6.708;2023-08-07T10:39:08;18.30;99.90
11666;DHT22;5889;51.350;6.708;2023-08-07T10:41:39;18.40;99.90
11666;DHT22;5889;51.350;6.708;2023-08-07T10:44:17;18.70;99.90
11666;DHT22;5889;51.350;6.708;2023-08-07T10:46:48;18.60;99.90
11666;DHT22;5889;51.350;6.708;2023-08-07T10:49:33;18.40;99.90
11666;DHT22;5889;51.350;6.708;2023-08-07T10:52:08;18.00;99.90
11666;DHT22;5889;51.350;6.708;2023-08-07T10:54:39;18.00;99.90
11666;DHT22;5889;51.350;6.708;2023-08-07T10:57:10;18.10;99.90
11666;DHT22;5889;51.350;6.708;2023-08-07T10:59:38;18.50;99.90
11666;DHT22;5889;51.350;6.708;2023-08-07T11:02:08;18.80;99.90
11666;DHT22;5889;51.350;6.708;2023-08-07T11:04:39;18.70;99.90
11666;DHT22;5889;51.350;6.708;2023-08-07T11:07:07;18.70;99.90
11666;DHT22;5889;51.350;6.708;2023-08-07T11:09:34;18.90;99.90
11666;DHT22;5889;51.350;6.708;2023-08-07T11:12:02;19.00;99.90
11666;DHT22;5889;51.350;6.708;2023-08-07T11:14:29;19.40;99.90
11666;DHT22;5889;51.350;6.708;2023-08-07T11:16:56;19.70;99.90
11666;DHT22;5889;51.350;6.708;2023-08-07T11:19:23;19.80;99.90
11666;DHT22;5889;51.350;6.708;2023-08-07T11:21:53;19.60;99.90
11666;DHT22;5889;51.350;6.708;2023-08-07T11:24:22;19.50;99.90
11666;DHT22;5889;51.350;6.708;2023-08-07T11:26:49;19.50;99.90
11666;DHT22;5889;51.350;6.708;2023-08-07T11:29:18;19.40;99.90
11666;DHT22;5889;51.350;6.708;2023-08-07T11:31:45;19.40;99.90
11666;DHT22;5889;51.350;6.708;2023-08-07T11:34:12;19.10;99.90
11666;DHT22;5889;51.350;6.708;2023-08-07T11:36:41;18.90;99.90
11666;DHT22;5889;51.350;6.708;2023-08-07T11:39:10;18.70;99.90
11666;DHT22;5889;51.350;6.708;2023-08-07T11:41:37;18.70;99.90
11666;DHT22;5889;51.350;6.708;2023-08-07T11:44:04;18.80;99.90
11666;DHT22;5889;51.350;6.708;2023-08-07T11:46:31;18.90;99.90
11666;DHT22;5889;51.350;6.708;2023-08-07T11:48:58;18.90;99.90
11666;DHT22;5889;51.350;6.708;2023-08-07T11:51:25;18.90;99.90
11666;DHT22;5889;51.350;6.708;2023-08-07T11:53:53;19.10;99.90
11666;DHT22;5889;51.350;6.708;2023-08-07T11:56:25;19.30;99.90
11666;DHT22;5889;51.350;6.708;2023-08-07T11:58:52;19.20;99.90
11666;DHT22;5889;51.350;6.708;2023-08-07T12:01:21;19.00;99.90
11666;DHT22;5889;51.350;6.708;2023-08-07T12:03:54;18.90;99.90
11666;DHT22;5889;51.350;6.708;2023-08-07T12:06:22;19.30;99.90
11666;DHT22;5889;51.350;6.708;2023-08-07T12:08:50;19.30;99.90
11666;DHT22;5889;51.350;6.708;2023-08-07T12:11:17;19.60;99.90
11666;DHT22;5889;51.350;6.708;2023-08-07T12:13:48;19.70;99.90
11666;DHT22;5889;51.350;6.708;2023-08-07T12:16:16;19.70;99.90
11666;DHT22;5889;51.350;6.708;2023-08-07T12:18:44;19.80;99.90
11666;DHT22;5889;51.350;6.708;2023-08-07T12:21:13;20.00;99.70
11666;DHT22;5889;51.350;6.708;2023-08-07T12:23:41;19.90;99.10
11666;DHT22;5889;51.350;6.708;2023-08-07T12:26:08;19.80;99.00
11666;DHT22;5889;51.350;6.708;2023-08-07T12:28:35;19.60;99.90
11666;DHT22;5889;51.350;6.708;2023-08-07T12:31:03;19.50;99.30
11666;DHT22;5889;51.350;6.708;2023-08-07T12:33:31;19.60;99.90
11666;DHT22;5889;51.350;6.708;2023-08-07T12:35:58;19.70;99.10
11666;DHT22;5889;51.350;6.708;2023-08-07T12:38:26;19.80;99.90
11666;DHT22;5889;51.350;6.708;2023-08-07T12:40:53;19.80;99.80
11666;DHT22;5889;51.350;6.708;2023-08-07T12:43:23;19.80;99.50
11666;DHT22;5889;51.350;6.708;2023-08-07T12:45:50;19.70;99.90
11666;DHT22;5889;51.350;6.708;2023-08-07T12:48:19;19.80;99.90
11666;DHT22;5889;51.350;6.708;2023-08-07T12:50:46;19.70;99.00
11666;DHT22;5889;51.350;6.708;2023-08-07T12:53:13;19.90;97.40
11666;DHT22;5889;51.350;6.708;2023-08-07T12:55:40;20.20;97.50
11666;DHT22;5889;51.350;6.708;2023-08-07T12:58:07;20.30;98.80
11666;DHT22;5889;51.350;6.708;2023-08-07T13:00:34;20.00;96.90
11666;DHT22;5889;51.350;6.708;2023-08-07T13:03:02;19.90;97.70
11666;DHT22;5889;51.350;6.708;2023-08-07T13:05:30;19.90;98.10
11666;DHT22;5889;51.350;6.708;2023-08-07T13:07:57;19.90;97.60
11666;DHT22;5889;51.350;6.708;2023-08-07T13:10:25;20.10;96.40
11666;DHT22;5889;51.350;6.708;2023-08-07T13:12:53;20.20;96.50
11666;DHT22;5889;51.350;6.708;2023-08-07T13:15:20;20.40;97.10
11666;DHT22;5889;51.350;6.708;2023-08-07T13:17:47;20.50;96.00
11666;DHT22;5889;51.350;6.708;2023-08-07T13:20:14;20.50;96.40
11666;DHT22;5889;51.350;6.708;2023-08-07T13:22:44;20.40;96.20
11666;DHT22;5889;51.350;6.708;2023-08-07T13:25:12;20.10;97.30
11666;DHT22;5889;51.350;6.708;2023-08-07T13:27:40;20.10;96.20
11666;DHT22;5889;51.350;6.708;2023-08-07T13:30:07;20.20;96.40
11666;DHT22;5889;51.350;6.708;2023-08-07T13:32:35;20.40;97.20
11666;DHT22;5889;51.350;6.708;2023-08-07T13:35:03;20.40;96.10
11666;DHT22;5889;51.350;6.708;2023-08-07T13:37:30;20.50;97.00
11666;DHT22;5889;51.350;6.708;2023-08-07T13:39:59;20.80;98.40
11666;DHT22;5889;51.350;6.708;2023-08-07T13:42:26;20.90;95.80
11666;DHT22;5889;51.350;6.708;2023-08-07T13:44:58;20.70;95.50
11666;DHT22;5889;51.350;6.708;2023-08-07T13:47:25;20.70;96.20
11666;DHT22;5889;51.350;6.708;2023-08-07T13:49:52;20.90;95.10
11666;DHT22;5889;51.350;6.708;2023-08-07T13:52:20;20.80;95.50
11666;DHT22;5889;51.350;6.708;2023-08-07T13:54:47;20.70;95.10
11666;DHT22;5889;51.350;6.708;2023-08-07T13:57:17;20.80;95.00
11666;DHT22;5889;51.350;6.708;2023-08-07T13:59:47;20.80;94.20
11666;DHT22;5889;51.350;6.708;2023-08-07T14:02:14;20.90;94.90
11666;DHT22;5889;51.350;6.708;2023-08-07T14:04:41;20.90;94.80
11666;DHT22;5889;51.350;6.708;2023-08-07T14:07:11;21.10;94.50
11666;DHT22;5889;51.350;6.708;2023-08-07T14:09:38;21.20;94.30
11666;DHT22;5889;51.350;6.708;2023-08-07T14:12:06;21.10;93.70
11666;DHT22;5889;51.350;6.708;2023-08-07T14:14:35;21.30;92.90
11666;DHT22;5889;51.350;6.708;2023-08-07T14:17:02;21.50;92.20
11666;DHT22;5889;51.350;6.708;2023-08-07T14:19:29;21.50;93.00
11666;DHT22;5889;51.350;6.708;2023-08-07T14:21:56;21.40;92.70
11666;DHT22;5889;51.350;6.708;2023-08-07T14:24:23;21.00;91.70
11666;DHT22;5889;51.350;6.708;2023-08-07T14:26:50;20.50;93.10
11666;DHT22;5889;51.350;6.708;2023-08-07T14:29:17;20.40;93.80
11666;DHT22;5889;51.350;6.708;2023-08-07T14:31:45;20.60;93.80
11666;DHT22;5889;51.350;6.708;2023-08-07T14:34:12;20.50;93.60
11666;DHT22;5889;51.350;6.708;2023-08-07T14:36:39;20.40;93.70
11666;DHT22;5889;51.350;6.708;2023-08-07T14:39:07;20.40;94.90
11666;DHT22;5889;51.350;6.708;2023-08-07T14:41:34;20.70;94.50
11666;DHT22;5889;51.350;6.708;2023-08-07T14:44:01;20.70;94.80
11666;DHT22;5889;51.350;6.708;2023-08-07T14:46:28;20.90;94.70
11666;DHT22;5889;51.350;6.708;2023-08-07T14:48:56;21.00;93.60
11666;DHT22;5889;51.350;6.708;2023-08-07T14:51:23;21.20;93.70
11666;DHT22;5889;51.350;6.708;2023-08-07T14:53:50;21.20;93.30
11666;DHT22;5889;51.350;6.708;2023-08-07T14:56:20;21.00;94.40
11666;DHT22;5889;51.350;6.708;2023-08-07T14:58:47;20.70;94.00
11666;DHT22;5889;51.350;6.708;2023-08-07T15:01:14;20.60;94.00
11666;DHT22;5889;51.350;6.708;2023-08-07T15:03:42;20.70;95.10
11666;DHT22;5889;51.350;6.708;2023-08-07T15:06:10;20.60;95.10
11666;DHT22;5889;51.350;6.708;2023-08-07T15:08:37;20.60;96.10
11666;DHT22;5889;51.350;6.708;2023-08-07T15:11:04;20.50;96.20
11666;DHT22;5889;51.350;6.708;2023-08-07T15:13:31;20.20;96.50
11666;DHT22;5889;51.350;6.708;2023-08-07T15:15:58;20.10;96.90
11666;DHT22;5889;51.350;6.708;2023-08-07T15:18:25;19.90;97.70
11666;DHT22;5889;51.350;6.708;2023-08-07T15:20:52;20.00;97.30
11666;DHT22;5889;51.350;6.708;2023-08-07T15:23:21;19.90;98.00
11666;DHT22;5889;51.350;6.708;2023-08-07T15:25:48;19.80;98.00
11666;DHT22;5889;51.350;6.708;2023-08-07T15:28:15;19.80;98.20
11666;DHT22;5889;51.350;6.708;2023-08-07T15:30:47;19.70;98.30
11666;DHT22;5889;51.350;6.708;2023-08-07T15:33:14;19.60;98.20
11666;DHT22;5889;51.350;6.708;2023-08-07T15:35:41;19.70;99.00
11666;DHT22;5889;51.350;6.708;2023-08-07T15:38:09;19.90;98.80
11666;DHT22;5889;51.350;6.708;2023-08-07T15:40:38;19.80;98.20
11666;DHT22;5889;51.350;6.708;2023-08-07T15:43:06;19.80;98.60
11666;DHT22;5889;51.350;6.708;2023-08-07T15:45:33;19.90;99.00
11666;DHT22;5889;51.350;6.708;2023-08-07T15:48:00;20.10;98.60
11666;DHT22;5889;51.350;6.708;2023-08-07T15:50:27;20.20;98.00
11666;DHT22;5889;51.350;6.708;2023-08-07T15:52:56;19.70;99.20
11666;DHT22;5889;51.350;6.708;2023-08-07T15:55:23;19.40;99.90
11666;DHT22;5889;51.350;6.708;2023-08-07T15:57:51;19.00;99.90
11666;DHT22;5889;51.350;6.708;2023-08-07T16:00:18;19.00;99.90
11666;DHT22;5889;51.350;6.708;2023-08-07T16:02:45;19.10;99.90
11666;DHT22;5889;51.350;6.708;2023-08-07T16:05:12;19.30;99.90
11666;DHT22;5889;51.350;6.708;2023-08-07T16:07:39;19.40;99.90
11666;DHT22;5889;51.350;6.708;2023-08-07T16:10:07;19.30;99.90
11666;DHT22;5889;51.350;6.708;2023-08-07T16:12:35;19.30;99.90
11666;DHT22;5889;51.350;6.708;2023-08-07T16:15:04;19.40;99.90
11666;DHT22;5889;51.350;6.708;2023-08-07T16:17:31;19.30;99.80
11666;DHT22;5889;51.350;6.708;2023-08-07T16:19:58;19.20;99.60
11666;DHT22;5889;51.350;6.708;2023-08-07T16:22:25;19.10;99.90
11666;DHT22;5889;51.350;6.708;2023-08-07T16:24:52;19.20;99.90
11666;DHT22;5889;51.350;6.708;2023-08-07T16:27:18;19.10;99.90
11666;DHT22;5889;51.350;6.708;2023-08-07T16:29:46;19.00;99.90
11666;DHT22;5889;51.350;6.708;2023-08-07T16:32:14;19.10;99.90
11666;DHT22;5889;51.350;6.708;2023-08-07T16:34:41;18.90;99.90
11666;DHT22;5889;51.350;6.708;2023-08-07T16:37:08;18.80;99.90
11666;DHT22;5889;51.350;6.708;2023-08-07T16:39:35;18.70;99.90
11666;DHT22;5889;51.350;6.708;2023-08-07T16:42:02;18.80;99.90
11666;DHT22;5889;51.350;6.708;2023-08-07T16:44:29;19.00;99.90
11666;DHT22;5889;51.350;6.708;2023-08-07T16:46:56;19.10;99.90
11666;DHT22;5889;51.350;6.708;2023-08-07T16:49:25;19.10;99.90
11666;DHT22;5889;51.350;6.708;2023-08-07T16:51:52;19.00;99.90
11666;DHT22;5889;51.350;6.708;2023-08-07T16:54:23;18.90;99.90
11666;DHT22;5889;51.350;6.708;2023-08-07T16:56:53;19.00;99.90
11666;DHT22;5889;51.350;6.708;2023-08-07T16:59:20;19.00;99.90
11666;DHT22;5889;51.350;6.708;2023-08-07T17:01:47;18.90;99.90
11666;DHT22;5889;51.350;6.708;2023-08-07T17:04:16;19.00;99.90
11666;DHT22;5889;51.350;6.708;2023-08-07T17:06:45;19.20;99.90
11666;DHT22;5889;51.350;6.708;2023-08-07T17:09:12;19.10;99.90
11666;DHT22;5889;51.350;6.708;2023-08-07T17:11:39;19.10;99.90
11666;DHT22;5889;51.350;6.708;2023-08-07T17:14:07;19.00;99.90
11666;DHT22;5889;51.350;6.708;2023-08-07T17:16:34;19.00;99.90
11666;DHT22;5889;51.350;6.708;2023-08-07T17:19:01;19.20;99.90
11666;DHT22;5889;51.350;6.708;2023-08-07T17:21:28;19.00;99.90
11666;DHT22;5889;51.350;6.708;2023-08-07T17:23:57;18.80;99.90
11666;DHT22;5889;51.350;6.708;2023-08-07T17:26:24;18.80;99.90
11666;DHT22;5889;51.350;6.708;2023-08-07T17:28:54;19.00;99.90
11666;DHT22;5889;51.350;6.708;2023-08-07T17:31:25;18.90;99.90
11666;DHT22;5889;51.350;6.708;2023-08-07T17:33:52;18.80;99.90
11666;DHT22;5889;51.350;6.708;2023-08-07T17:36:19;18.70;99.90
11666;DHT22;5889;51.350;6.708;2023-08-07T17:38:46;18.60;99.90
11666;DHT22;5889;51.350;6.708;2023-08-07T17:41:14;18.50;99.90
11666;DHT22;5889;51.350;6.708;2023-08-07T17:43:41;18.70;99.90
11666;DHT22;5889;51.350;6.708;2023-08-07T17:46:08;18.90;99.90
11666;DHT22;5889;51.350;6.708;2023-08-07T17:48:35;19.30;99.90
11666;DHT22;5889;51.350;6.708;2023-08-07T17:51:02;19.20;99.90
11666;DHT22;5889;51.350;6.708;2023-08-07T17:53:29;19.00;99.90
11666;DHT22;5889;51.350;6.708;2023-08-07T17:55:56;18.80;99.90
11666;DHT22;5889;51.350;6.708;2023-08-07T17:58:26;18.70;99.90
11666;DHT22;5889;51.350;6.708;2023-08-07T18:00:53;19.20;99.90
11666;DHT22;5889;51.350;6.708;2023-08-07T18:03:20;19.70;99.90
11666;DHT22;5889;51.350;6.708;2023-08-07T18:05:47;19.80;99.90
11666;DHT22;5889;51.350;6.708;2023-08-07T18:08:14;19.80;99.90
11666;DHT22;5889;51.350;6.708;2023-08-07T18:10:41;20.20;99.90
11666;DHT22;5889;51.350;6.708;2023-08-07T18:13:08;20.10;99.90
11666;DHT22;5889;51.350;6.708;2023-08-07T18:15:37;19.90;99.90
11666;DHT22;5889;51.350;6.708;2023-08-07T18:18:04;19.90;99.90
11666;DHT22;5889;51.350;6.708;2023-08-07T18:20:31;19.90;99.90
11666;DHT22;5889;51.350;6.708;2023-08-07T18:22:58;19.90;99.90
11666;DHT22;5889;51.350;6.708;2023-08-07T18:25:25;19.90;99.90
11666;DHT22;5889;51.350;6.708;2023-08-07T18:27:52;19.90;99.90
11666;DHT22;5889;51.350;6.708;2023-08-07T18:30:19;19.80;99.90
11666;DHT22;5889;51.350;6.708;2023-08-07T18:32:47;19.30;99.90
11666;DHT22;5889;51.350;6.708;2023-08-07T18:35:14;18.90;99.90
11666;DHT22;5889;51.350;6.708;2023-08-07T18:37:41;18.30;99.90
11666;DHT22;5889;51.350;6.708;2023-08-07T18:40:09;17.90;99.90
11666;DHT22;5889;51.350;6.708;2023-08-07T18:42:37;17.60;99.90
11666;DHT22;5889;51.350;6.708;2023-08-07T18:45:05;17.40;99.90
11666;DHT22;5889;51.350;6.708;2023-08-07T18:47:35;17.30;99.90
11666;DHT22;5889;51.350;6.708;2023-08-07T18:50:04;17.20;99.90
11666;DHT22;5889;51.350;6.708;2023-08-07T18:52:31;17.10;99.90
11666;DHT22;5889;51.350;6.708;2023-08-07T18:54:58;17.00;99.90
11666;DHT22;5889;51.350;6.708;2023-08-07T18:57:25;17.00;99.90
11666;DHT22;5889;51.350;6.708;2023-08-07T18:59:52;17.20;99.90
11666;DHT22;5889;51.350;6.708;2023-08-07T19:02:19;17.30;99.90
11666;DHT22;5889;51.350;6.708;2023-08-07T19:04:46;17.20;99.90
11666;DHT22;5889;51.350;6.708;2023-08-07T19:07:19;17.10;99.90
11666;DHT22;5889;51.350;6.708;2023-08-07T19:09:46;17.10;99.90
11666;DHT22;5889;51.350;6.708;2023-08-07T19:12:13;17.00;99.90
11666;DHT22;5889;51.350;6.708;2023-08-07T19:14:40;17.00;99.90
11666;DHT22;5889;51.350;6.708;2023-08-07T19:17:07;17.00;99.90
11666;DHT22;5889;51.350;6.708;2023-08-07T19:19:34;17.00;99.90
11666;DHT22;5889;51.350;6.708;2023-08-07T19:22:01;17.00;99.90
11666;DHT22;5889;51.350;6.708;2023-08-07T19:24:30;17.00;99.90
11666;DHT22;5889;51.350;6.708;2023-08-07T19:26:57;17.00;99.90
11666;DHT22;5889;51.350;6.708;2023-08-07T19:29:24;17.00;99.90
11666;DHT22;5889;51.350;6.708;2023-08-07T19:31:51;17.00;99.90
11666;DHT22;5889;51.350;6.708;2023-08-07T19:34:18;17.00;99.90
11666;DHT22;5889;51.350;6.708;2023-08-07T19:36:45;17.10;99.90
11666;DHT22;5889;51.350;6.708;2023-08-07T19:39:15;17.10;99.90
11666;DHT22;5889;51.350;6.708;2023-08-07T19:41:43;17.10;99.90
11666;DHT22;5889;51.350;6.708;2023-08-07T19:44:10;17.20;99.90
11666;DHT22;5889;51.350;6.708;2023-08-07T19:46:37;17.20;99.90
11666;DHT22;5889;51.350;6.708;2023-08-07T19:49:04;17.30;99.90
11666;DHT22;5889;51.350;6.708;2023-08-07T19:51:31;17.30;99.90
11666;DHT22;5889;51.350;6.708;2023-08-07T19:53:58;17.30;99.90
11666;DHT22;5889;51.350;6.708;2023-08-07T19:56:26;17.40;99.90
11666;DHT22;5889;51.350;6.708;2023-08-07T19:58:54;17.40;99.90
11666;DHT22;5889;51.350;6.708;2023-08-07T20:01:21;17.30;99.90
11666;DHT22;5889;51.350;6.708;2023-08-07T20:03:48;17.30;99.90
11666;DHT22;5889;51.350;6.708;2023-08-07T20:06:15;17.40;99.90
11666;DHT22;5889;51.350;6.708;2023-08-07T20:08:42;17.40;99.90
11666;DHT22;5889;51.350;6.708;2023-08-07T20:11:09;17.40;99.90
11666;DHT22;5889;51.350;6.708;2023-08-07T20:13:36;17.30;99.90
11666;DHT22;5889;51.350;6.708;2023-08-07T20:16:05;17.30;99.90
11666;DHT22;5889;51.350;6.708;2023-08-07T20:18:32;17.30;99.90
11666;DHT22;5889;51.350;6.708;2023-08-07T20:20:59;17.30;99.90
11666;DHT22;5889;51.350;6.708;2023-08-07T20:23:26;17.20;99.90
11666;DHT22;5889;51.350;6.708;2023-08-07T20:25:53;17.20;99.90
11666;DHT22;5889;51.350;6.708;2023-08-07T20:28:20;17.20;99.90
11666;DHT22;5889;51.350;6.708;2023-08-07T20:30:47;17.20;99.90
11666;DHT22;5889;51.350;6.708;2023-08-07T20:33:16;17.20;99.90
11666;DHT22;5889;51.350;6.708;2023-08-07T20:35:43;17.20;99.90
11666;DHT22;5889;51.350;6.708;2023-08-07T20:38:10;17.10;99.90
11666;DHT22;5889;51.350;6.708;2023-08-07T20:40:37;17.10;99.90
11666;DHT22;5889;51.350;6.708;2023-08-07T20:43:04;17.00;99.90
11666;DHT22;5889;51.350;6.708;2023-08-07T20:45:31;17.00;99.90
11666;DHT22;5889;51.350;6.708;2023-08-07T20:47:58;16.90;99.90
11666;DHT22;5889;51.350;6.708;2023-08-07T20:50:26;16.90;99.90
11666;DHT22;5889;51.350;6.708;2023-08-07T20:52:53;16.90;99.90
11666;DHT22;5889;51.350;6.708;2023-08-07T20:55:20;16.90;99.90
11666;DHT22;5889;51.350;6.708;2023-08-07T20:57:47;16.80;99.90
11666;DHT22;5889;51.350;6.708;2023-08-07T21:00:15;16.80;99.90
11666;DHT22;5889;51.350;6.708;2023-08-07T21:02:42;16.80;99.90
11666;DHT22;5889;51.350;6.708;2023-08-07T21:05:09;16.80;99.90
11666;DHT22;5889;51.350;6.708;2023-08-07T21:07:37;16.80;99.90
11666;DHT22;5889;51.350;6.708;2023-08-07T21:10:05;16.80;99.90
11666;DHT22;5889;51.350;6.708;2023-08-07T21:12:33;16.80;99.90
11666;DHT22;5889;51.350;6.708;2023-08-07T21:15:00;16.80;99.90
11666;DHT22;5889;51.350;6.708;2023-08-07T21:17:28;16.80;99.90
11666;DHT22;5889;51.350;6.708;2023-08-07T21:19:55;16.80;99.90
11666;DHT22;5889;51.350;6.708;2023-08-07T21:22:22;16.80;99.90
11666;DHT22;5889;51.350;6.708;2023-08-07T21:24:50;16.80;99.90
11666;DHT22;5889;51.350;6.708;2023-08-07T21:27:17;16.70;99.90
11666;DHT22;5889;51.350;6.708;2023-08-07T21:29:46;16.80;99.90
11666;DHT22;5889;51.350;6.708;2023-08-07T21:32:13;16.70;99.90
11666;DHT22;5889;51.350;6.708;2023-08-07T21:34:40;16.70;99.90
11666;DHT22;5889;51.350;6.708;2023-08-07T21:37:07;16.70;99.90
11666;DHT22;5889;51.350;6.708;2023-08-07T21:39:34;16.70;99.90
11666;DHT22;5889;51.350;6.708;2023-08-07T21:42:02;16.70;99.90
11666;DHT22;5889;51.350;6.708;2023-08-07T21:44:29;16.60;99.90
11666;DHT22;5889;51.350;6.708;2023-08-07T21:46:56;16.60;99.90
11666;DHT22;5889;51.350;6.708;2023-08-07T21:49:23;16.60;99.90
11666;DHT22;5889;51.350;6.708;2023-08-07T21:51:50;16.60;99.90
11666;DHT22;5889;51.350;6.708;2023-08-07T21:54:17;16.60;99.90
11666;DHT22;5889;51.350;6.708;2023-08-07T21:56:44;16.50;99.90
11666;DHT22;5889;51.350;6.708;2023-08-07T21:59:14;16.60;99.90
11666;DHT22;5889;51.350;6.708;2023-08-07T22:01:42;16.50;99.90
11666;DHT22;5889;51.350;6.708;2023-08-07T22:04:08;16.50;99.90
11666;DHT22;5889;51.350;6.708;2023-08-07T22:06:36;16.50;99.90
11666;DHT22;5889;51.350;6.708;2023-08-07T22:09:03;16.50;99.90
11666;DHT22;5889;51.350;6.708;2023-08-07T22:11:30;16.50;99.90
11666;DHT22;5889;51.350;6.708;2023-08-07T22:13:57;16.50;99.90
11666;DHT22;5889;51.350;6.708;2023-08-07T22:16:26;16.50;99.90
11666;DHT22;5889;51.350;6.708;2023-08-07T22:18:54;16.50;99.90